Time;durP1;ratioP1;P1;durP2;ratioP2;P2;SDS_P1;SDS_P2;PMS_P1;PMS_P2;Temp;Humidity;BMP_temperature;BMP_pressure;BME280_temperature;BME280_humidity;BME280_pressure;Samples;Min_cycle;Max_cycle;Signal;HPM_P1;HPM_P2
2024/01/25 00:01:57;;;;;;;191.87;59.30;;;;;;;;;;5001027;28;20416;-42
2024/01/25 00:04:23;;;;;;;191.80;59.27;;;;;;;;;;4995777;28;20939;-43
2024/01/25 00:06:49;;;;;;;190.67;59.60;;;;;;;;;;4995790;28;20423;-43
2024/01/25 00:09:15;;;;;;;190.13;58.60;;;;;;;;;;4996233;28;20407;-43
2024/01/25 00:11:41;;;;;;;190.43;59.57;;;;;;;;;;4996570;28;20416;-43
2024/01/25 00:14:07;;;;;;;192.80;60.20;;;;;;;;;;4995721;28;20420;-43
2024/01/25 00:16:33;;;;;;;191.07;58.77;;;;;;;;;;4994408;28;20418;-43
2024/01/25 00:18:59;;;;;;;190.83;61.30;;;;;;;;;;5000629;28;20423;-43
2024/01/25 00:21:25;;;;;;;190.40;59.60;;;;;;;;;;4995830;28;20580;-43
2024/01/25 00:23:51;;;;;;;189.10;58.50;;;;;;;;;;4997112;28;20422;-44
2024/01/25 00:26:17;;;;;;;190.70;59.27;;;;;;;;;;4997861;28;20412;-44
2024/01/25 00:28:42;;;;;;;193.07;60.93;;;;;;;;;;4994773;28;20416;-44
2024/01/25 00:31:08;;;;;;;190.07;58.43;;;;;;;;;;5000052;28;20933;-44
2024/01/25 00:33:34;;;;;;;191.35;59.78;;;;;;;;;;5001621;28;20866;-44
2024/01/25 00:36:01;;;;;;;190.40;59.20;;;;;;;;;;4995174;28;20177;-44
2024/01/25 00:38:27;;;;;;;188.75;58.35;;;;;;;;;;4996636;28;20426;-45
2024/01/25 00:40:53;;;;;;;188.38;57.72;;;;;;;;;;4994692;28;20199;-45
2024/01/25 00:43:19;;;;;;;190.75;58.95;;;;;;;;;;4999259;28;20195;-44
2024/01/25 00:45:45;;;;;;;191.52;59.80;;;;;;;;;;4996905;28;20223;-44
2024/01/25 00:48:12;;;;;;;188.40;57.50;;;;;;;;;;4998772;28;20656;-45
2024/01/25 00:50:38;;;;;;;190.45;60.58;;;;;;;;;;4994711;28;20209;-44
2024/01/25 00:53:04;;;;;;;190.13;59.65;;;;;;;;;;4996424;28;20231;-44
2024/01/25 00:55:30;;;;;;;187.13;57.67;;;;;;;;;;4994840;28;20180;-45
2024/01/25 00:57:57;;;;;;;187.98;58.80;;;;;;;;;;4994781;28;20176;-44
2024/01/25 01:00:25;;;;;;;188.02;57.70;;;;;;;;;;4999140;28;20204;-48
2024/01/25 01:02:51;;;;;;;193.45;60.95;;;;;;;;;;5017373;28;20228;-46
2024/01/25 01:05:17;;;;;;;191.00;59.28;;;;;;;;;;5001442;28;20222;-44
2024/01/25 01:07:44;;;;;;;189.55;57.72;;;;;;;;;;5009655;28;20203;-47
2024/01/25 01:10:10;;;;;;;190.90;58.45;;;;;;;;;;5008976;28;20679;-44
2024/01/25 01:12:36;;;;;;;190.35;59.35;;;;;;;;;;4998329;28;20207;-44
2024/01/25 01:15:03;;;;;;;189.50;57.78;;;;;;;;;;4997741;28;20590;-46
2024/01/25 01:17:29;;;;;;;190.77;59.35;;;;;;;;;;5017712;28;20164;-46
2024/01/25 01:19:55;;;;;;;188.67;58.57;;;;;;;;;;5001500;28;20204;-44
2024/01/25 01:22:21;;;;;;;187.97;57.67;;;;;;;;;;5010146;28;20421;-46
2024/01/25 01:24:47;;;;;;;189.00;58.13;;;;;;;;;;5009580;28;20420;-44
2024/01/25 01:27:13;;;;;;;187.40;57.23;;;;;;;;;;5002096;28;20419;-47
2024/01/25 01:29:39;;;;;;;190.17;57.97;;;;;;;;;;5016740;28;20430;-45
2024/01/25 01:32:05;;;;;;;188.17;56.40;;;;;;;;;;4997525;28;20475;-45
2024/01/25 01:34:31;;;;;;;187.40;56.78;;;;;;;;;;5012972;28;20415;-45
2024/01/25 01:36:57;;;;;;;192.80;60.60;;;;;;;;;;5005458;28;20188;-45
2024/01/25 01:39:23;;;;;;;190.70;58.57;;;;;;;;;;5003389;28;20206;-46
2024/01/25 01:41:49;;;;;;;189.00;58.03;;;;;;;;;;5012642;28;20486;-46
2024/01/25 01:44:16;;;;;;;188.77;57.38;;;;;;;;;;4997123;28;20411;-44
2024/01/25 01:46:42;;;;;;;187.18;56.92;;;;;;;;;;5015978;28;20187;-45
2024/01/25 01:49:09;;;;;;;190.23;57.88;;;;;;;;;;5000826;28;20556;-44
2024/01/25 01:51:35;;;;;;;191.35;58.78;;;;;;;;;;5007592;28;20180;-45
2024/01/25 01:54:03;;;;;;;191.00;58.45;;;;;;;;;;5008608;28;20605;-44
2024/01/25 01:56:29;;;;;;;190.65;57.90;;;;;;;;;;4999191;28;20262;-45
2024/01/25 01:58:57;;;;;;;193.15;59.05;;;;;;;;;;5015617;28;20172;-44
2024/01/25 02:01:25;;;;;;;193.85;58.58;;;;;;;;;;4995992;28;20221;-45
2024/01/25 02:03:51;;;;;;;192.15;57.50;;;;;;;;;;5012152;28;20547;-45
2024/01/25 02:06:17;;;;;;;192.20;58.10;;;;;;;;;;5004415;28;20185;-45
2024/01/25 02:08:43;;;;;;;190.27;58.13;;;;;;;;;;5003725;28;20794;-45
2024/01/25 02:11:11;;;;;;;192.35;58.47;;;;;;;;;;5013040;28;20286;-46
2024/01/25 02:13:37;;;;;;;189.80;57.08;;;;;;;;;;4997188;28;20184;-44
2024/01/25 02:16:03;;;;;;;190.73;58.70;;;;;;;;;;5016587;28;20651;-46
2024/01/25 02:18:29;;;;;;;192.63;59.35;;;;;;;;;;5001882;28;20401;-45
2024/01/25 02:20:55;;;;;;;192.18;60.17;;;;;;;;;;5008175;28;20192;-46
2024/01/25 02:23:21;;;;;;;189.07;57.43;;;;;;;;;;5009637;28;20180;-47
2024/01/25 02:25:47;;;;;;;188.57;58.17;;;;;;;;;;4999783;28;20429;-46
2024/01/25 02:28:13;;;;;;;187.93;57.40;;;;;;;;;;5016164;28;20395;-45
2024/01/25 02:30:39;;;;;;;190.37;60.03;;;;;;;;;;4997272;28;20212;-45
2024/01/25 02:33:05;;;;;;;188.40;57.43;;;;;;;;;;5011472;28;20463;-45
2024/01/25 02:35:31;;;;;;;188.50;57.73;;;;;;;;;;5005808;28;20440;-45
2024/01/25 02:37:57;;;;;;;186.90;55.77;;;;;;;;;;5003618;28;20419;-46
2024/01/25 02:40:23;;;;;;;186.85;57.00;;;;;;;;;;5013549;28;20431;-46
2024/01/25 02:42:49;;;;;;;186.85;56.42;;;;;;;;;;4996863;28;20188;-46
2024/01/25 02:45:15;;;;;;;189.57;58.05;;;;;;;;;;5015259;28;20670;-46
2024/01/25 02:47:41;;;;;;;187.20;56.33;;;;;;;;;;5002369;28;20545;-47
2024/01/25 02:50:07;;;;;;;188.87;57.77;;;;;;;;;;4997467;28;20196;-45
2024/01/25 02:52:33;;;;;;;187.93;56.35;;;;;;;;;;5003103;28;20454;-46
2024/01/25 02:54:59;;;;;;;187.50;56.87;;;;;;;;;;5013904;28;20263;-46
2024/01/25 02:57:25;;;;;;;188.93;58.17;;;;;;;;;;4996797;28;20411;-44
2024/01/25 02:59:51;;;;;;;189.02;58.35;;;;;;;;;;5014057;28;20437;-46
2024/01/25 03:02:19;;;;;;;186.53;56.00;;;;;;;;;;5001776;28;20183;-45
2024/01/25 03:04:45;;;;;;;187.73;56.05;;;;;;;;;;5005501;28;20413;-46
2024/01/25 03:07:11;;;;;;;188.18;57.00;;;;;;;;;;5010264;28;20207;-46
2024/01/25 03:09:37;;;;;;;189.47;58.30;;;;;;;;;;4996410;28;20561;-46
2024/01/25 03:12:03;;;;;;;186.47;55.80;;;;;;;;;;5015227;28;20941;-46
2024/01/25 03:14:29;;;;;;;187.52;56.17;;;;;;;;;;4997940;28;20415;-46
2024/01/25 03:16:55;;;;;;;185.27;55.63;;;;;;;;;;5009228;28;20543;-45
2024/01/25 03:19:20;;;;;;;185.87;55.17;;;;;;;;;;5006593;28;20203;-44
2024/01/25 03:21:46;;;;;;;185.90;54.53;;;;;;;;;;5001273;28;20952;-44
2024/01/25 03:24:13;;;;;;;186.00;55.57;;;;;;;;;;5013926;28;20825;-46
2024/01/25 03:26:39;;;;;;;186.10;55.10;;;;;;;;;;4995251;28;20784;-44
2024/01/25 03:29:05;;;;;;;187.27;55.73;;;;;;;;;;5012877;28;20259;-46
2024/01/25 03:31:31;;;;;;;185.33;53.80;;;;;;;;;;5002765;28;20421;-45
2024/01/25 03:33:57;;;;;;;185.83;55.70;;;;;;;;;;5004932;28;21222;-46
2024/01/25 03:36:23;;;;;;;187.15;57.03;;;;;;;;;;5010411;28;20419;-46
2024/01/25 03:38:49;;;;;;;185.67;56.13;;;;;;;;;;4996408;28;20511;-44
2024/01/25 03:41:15;;;;;;;186.40;57.00;;;;;;;;;;5015731;28;20440;-45
2024/01/25 03:43:41;;;;;;;185.90;55.57;;;;;;;;;;4999060;28;20430;-45
2024/01/25 03:46:07;;;;;;;183.67;54.73;;;;;;;;;;5008266;28;20453;-45
2024/01/25 03:48:33;;;;;;;185.73;55.57;;;;;;;;;;5007391;28;20836;-46
2024/01/25 03:50:59;;;;;;;185.57;55.30;;;;;;;;;;4999638;28;20437;-45
2024/01/25 03:53:25;;;;;;;184.30;54.25;;;;;;;;;;5015075;28;20457;-44
2024/01/25 03:55:51;;;;;;;186.57;56.47;;;;;;;;;;4995786;28;20176;-45
2024/01/25 03:58:19;;;;;;;187.38;56.45;;;;;;;;;;5010531;28;20405;-45
2024/01/25 04:00:45;;;;;;;188.07;57.47;;;;;;;;;;5002508;28;20568;-45
2024/01/25 04:03:11;;;;;;;185.90;55.15;;;;;;;;;;5003493;28;20194;-44
2024/01/25 04:05:39;;;;;;;186.05;55.58;;;;;;;;;;5010798;28;20275;-46
2024/01/25 04:08:05;;;;;;;189.40;57.00;;;;;;;;;;4995720;28;20178;-45
2024/01/25 04:10:31;;;;;;;186.95;56.28;;;;;;;;;;5014214;28;20193;-45
2024/01/25 04:12:57;;;;;;;184.57;55.40;;;;;;;;;;4998565;28;20288;-46
2024/01/25 04:15:23;;;;;;;187.60;57.33;;;;;;;;;;5006880;28;20207;-44
2024/01/25 04:17:50;;;;;;;185.93;55.20;;;;;;;;;;5007056;28;20550;-45
2024/01/25 04:20:16;;;;;;;186.52;55.13;;;;;;;;;;4998793;28;20440;-46
2024/01/25 04:22:42;;;;;;;186.00;54.60;;;;;;;;;;5018232;28;20579;-43
2024/01/25 04:25:08;;;;;;;186.35;55.00;;;;;;;;;;4999069;28;20179;-44
2024/01/25 04:27:34;;;;;;;187.40;55.08;;;;;;;;;;5014625;28;20517;-46
2024/01/25 04:30:00;;;;;;;187.17;56.20;;;;;;;;;;5007049;28;20697;-45
2024/01/25 04:32:26;;;;;;;187.60;55.55;;;;;;;;;;5006078;28;20459;-45
2024/01/25 04:34:52;;;;;;;187.57;55.37;;;;;;;;;;5015042;28;20186;-44
2024/01/25 04:37:18;;;;;;;187.05;54.15;;;;;;;;;;4999176;28;20738;-45
2024/01/25 04:39:44;;;;;;;188.67;54.97;;;;;;;;;;5017043;28;20561;-46
2024/01/25 04:42:10;;;;;;;187.67;55.23;;;;;;;;;;5003061;28;20500;-45
2024/01/25 04:44:36;;;;;;;187.00;53.07;;;;;;;;;;5009270;28;20436;-46
2024/01/25 04:47:02;;;;;;;187.63;54.08;;;;;;;;;;5011043;28;20408;-45
2024/01/25 04:49:27;;;;;;;188.20;56.50;;;;;;;;;;5000547;28;20201;-44
2024/01/25 04:51:53;;;;;;;185.57;53.40;;;;;;;;;;5016985;28;20405;-44
2024/01/25 04:54:19;;;;;;;195.83;62.17;;;;;;;;;;4995144;28;20476;-44
2024/01/25 04:56:45;;;;;;;184.87;52.87;;;;;;;;;;4996305;28;20478;-44
2024/01/25 04:59:11;;;;;;;187.70;54.47;;;;;;;;;;5006683;28;20418;-44
2024/01/25 05:01:37;;;;;;;186.40;53.77;;;;;;;;;;5010541;28;20416;-45
2024/01/25 05:04:03;;;;;;;187.95;55.33;;;;;;;;;;5014462;28;20414;-44
2024/01/25 05:06:29;;;;;;;187.50;54.13;;;;;;;;;;4996303;28;20178;-44
2024/01/25 05:08:55;;;;;;;188.48;55.47;;;;;;;;;;5016294;28;20269;-46
2024/01/25 05:11:21;;;;;;;184.67;52.70;;;;;;;;;;5003765;28;20204;-44
2024/01/25 05:13:47;;;;;;;185.57;52.30;;;;;;;;;;5007146;28;20495;-44
2024/01/25 05:16:13;;;;;;;183.10;51.80;;;;;;;;;;5012222;28;20471;-46
2024/01/25 05:18:39;;;;;;;187.07;54.17;;;;;;;;;;4999894;28;20411;-44
2024/01/25 05:21:05;;;;;;;184.43;53.63;;;;;;;;;;5017181;28;20417;-46
2024/01/25 05:23:32;;;;;;;186.80;54.65;;;;;;;;;;4999967;28;20510;-44
2024/01/25 05:25:58;;;;;;;185.40;52.60;;;;;;;;;;4999241;28;20227;-45
2024/01/25 05:28:26;;;;;;;183.87;53.30;;;;;;;;;;4997619;28;20425;-46
2024/01/25 05:30:52;;;;;;;184.20;53.05;;;;;;;;;;4997188;28;20459;-45
2024/01/25 05:33:18;;;;;;;183.07;52.60;;;;;;;;;;4996860;28;20679;-45
2024/01/25 05:35:44;;;;;;;184.18;53.35;;;;;;;;;;4997556;28;20756;-46
2024/01/25 05:38:10;;;;;;;182.97;53.07;;;;;;;;;;4997525;28;20186;-47
2024/01/25 05:40:36;;;;;;;185.57;54.70;;;;;;;;;;4997046;28;20438;-46
2024/01/25 05:43:03;;;;;;;184.38;53.97;;;;;;;;;;4997304;28;20195;-46
2024/01/25 05:45:28;;;;;;;182.52;52.85;;;;;;;;;;4997107;28;20873;-46
2024/01/25 05:47:54;;;;;;;183.67;54.20;;;;;;;;;;4997395;28;20184;-45
2024/01/25 05:50:20;;;;;;;183.70;54.30;;;;;;;;;;4996400;28;20444;-45
2024/01/25 05:52:46;;;;;;;182.07;52.67;;;;;;;;;;4997095;28;20472;-45
2024/01/25 05:55:14;;;;;;;181.90;53.07;;;;;;;;;;4997322;28;20454;-45
2024/01/25 05:57:40;;;;;;;180.13;52.00;;;;;;;;;;4996371;28;20408;-47
2024/01/25 06:00:07;;;;;;;183.97;53.80;;;;;;;;;;4997052;28;20213;-46
2024/01/25 06:02:33;;;;;;;184.65;53.83;;;;;;;;;;4996437;28;20911;-46
2024/01/25 06:04:59;;;;;;;185.40;54.87;;;;;;;;;;4996675;28;20311;-45
2024/01/25 06:07:25;;;;;;;182.70;53.10;;;;;;;;;;4996334;28;20427;-44
2024/01/25 06:09:51;;;;;;;186.82;55.80;;;;;;;;;;4995698;28;20204;-45
2024/01/25 06:12:19;;;;;;;183.30;53.37;;;;;;;;;;4995691;28;20280;-44
2024/01/25 06:14:44;;;;;;;183.82;54.03;;;;;;;;;;4995639;28;20776;-44
2024/01/25 06:17:10;;;;;;;184.37;53.30;;;;;;;;;;4995465;28;20177;-46
2024/01/25 06:19:36;;;;;;;183.88;53.72;;;;;;;;;;4995587;28;20839;-46
2024/01/25 06:22:02;;;;;;;183.10;51.87;;;;;;;;;;4995299;28;20324;-45
2024/01/25 06:24:29;;;;;;;183.70;52.80;;;;;;;;;;4994967;28;20444;-45
2024/01/25 06:26:55;;;;;;;186.45;54.00;;;;;;;;;;4995166;28;20415;-44
2024/01/25 06:29:21;;;;;;;185.90;53.17;;;;;;;;;;4994291;28;20182;-44
2024/01/25 06:31:47;;;;;;;183.43;53.27;;;;;;;;;;4994281;28;20170;-45
2024/01/25 06:34:13;;;;;;;185.77;54.67;;;;;;;;;;4994974;28;20415;-45
2024/01/25 06:36:39;;;;;;;186.83;53.87;;;;;;;;;;4994751;28;20280;-45
2024/01/25 06:42:08;;;;;;;184.30;52.83;;;;;;;;;;4991766;28;20199;-44
2024/01/25 06:44:34;;;;;;;183.27;51.10;;;;;;;;;;4994129;28;20180;-44
2024/01/25 06:47:00;;;;;;;184.27;53.63;;;;;;;;;;4995336;28;20424;-45
2024/01/25 06:49:26;;;;;;;184.00;53.10;;;;;;;;;;4994459;28;20433;-46
2024/01/25 06:51:52;;;;;;;181.98;52.92;;;;;;;;;;4994552;28;20417;-45
2024/01/25 06:54:18;;;;;;;183.77;53.35;;;;;;;;;;4995131;28;20176;-46
2024/01/25 06:56:44;;;;;;;184.73;53.45;;;;;;;;;;4994841;28;20170;-45
2024/01/25 06:59:10;;;;;;;187.53;55.67;;;;;;;;;;4993323;28;20185;-44
2024/01/25 07:01:36;;;;;;;182.70;52.30;;;;;;;;;;4992311;28;20424;-46
2024/01/25 07:04:03;;;;;;;182.38;52.05;;;;;;;;;;4993212;28;20420;-46
2024/01/25 07:06:29;;;;;;;181.63;52.08;;;;;;;;;;4996220;28;20195;-46
2024/01/25 07:08:55;;;;;;;185.43;55.72;;;;;;;;;;4993211;28;20188;-46
2024/01/25 07:11:21;;;;;;;180.75;52.35;;;;;;;;;;5001129;28;20197;-45
2024/01/25 07:13:47;;;;;;;180.97;52.10;;;;;;;;;;4994176;28;20600;-45
2024/01/25 07:16:13;;;;;;;182.02;52.20;;;;;;;;;;4994465;28;20498;-44
2024/01/25 07:18:39;;;;;;;181.90;52.33;;;;;;;;;;4994786;28;20664;-44
2024/01/25 07:21:05;;;;;;;180.10;53.00;;;;;;;;;;4993543;28;20428;-44
2024/01/25 07:23:31;;;;;;;182.30;53.38;;;;;;;;;;4998831;28;20187;-44
2024/01/25 07:25:57;;;;;;;180.47;51.43;;;;;;;;;;5000624;28;20179;-45
2024/01/25 07:28:23;;;;;;;181.13;51.47;;;;;;;;;;4993499;28;20451;-45
2024/01/25 07:30:49;;;;;;;184.77;53.35;;;;;;;;;;4995769;28;21002;-44
2024/01/25 07:33:15;;;;;;;183.88;51.35;;;;;;;;;;5011794;28;20220;-45
2024/01/25 07:35:45;;;;;;;183.13;51.80;;;;;;;;;;4993525;28;20672;-43
2024/01/25 07:38:11;;;;;;;183.80;52.65;;;;;;;;;;5006747;28;20183;-43
2024/01/25 07:40:37;;;;;;;182.38;52.33;;;;;;;;;;5000740;28;20196;-43
2024/01/25 07:43:03;;;;;;;180.48;54.30;;;;;;;;;;4998746;28;20267;-43
2024/01/25 07:45:29;;;;;;;180.13;53.58;;;;;;;;;;5009256;28;20234;-43
2024/01/25 07:47:55;;;;;;;180.87;54.30;;;;;;;;;;4989413;28;20235;-43
2024/01/25 07:50:21;;;;;;;182.20;55.03;;;;;;;;;;4994961;28;20471;-44
2024/01/25 07:52:49;;;;;;;179.63;52.95;;;;;;;;;;4991789;28;20450;-43
2024/01/25 07:55:15;;;;;;;179.35;52.05;;;;;;;;;;4992073;28;20637;-43
2024/01/25 07:57:41;;;;;;;178.77;52.15;;;;;;;;;;4996906;28;20191;-43
2024/01/25 08:00:08;;;;;;;179.50;53.30;;;;;;;;;;4995574;28;20207;-43
2024/01/25 08:02:34;;;;;;;176.40;50.88;;;;;;;;;;4995639;28;20425;-43
2024/01/25 08:05:00;;;;;;;178.07;51.70;;;;;;;;;;4999170;28;20179;-43
2024/01/25 08:07:26;;;;;;;174.60;50.50;;;;;;;;;;4995486;28;20188;-43
2024/01/25 08:09:53;;;;;;;186.77;52.90;;;;;;;;;;4995322;28;20444;-44
2024/01/25 08:12:19;;;;;;;183.27;51.13;;;;;;;;;;5009912;28;20516;-44
2024/01/25 08:14:45;;;;;;;186.40;53.85;;;;;;;;;;5004616;28;20176;-43
2024/01/25 08:17:11;;;;;;;185.93;52.50;;;;;;;;;;5001912;28;20662;-44
2024/01/25 08:19:37;;;;;;;188.50;54.75;;;;;;;;;;5012294;28;20233;-44
2024/01/25 08:22:03;;;;;;;187.10;53.47;;;;;;;;;;4995438;28;20177;-44
2024/01/25 08:24:29;;;;;;;183.88;52.75;;;;;;;;;;5013686;28;20496;-43
2024/01/25 08:26:55;;;;;;;177.70;51.90;;;;;;;;;;5000795;28;20209;-43
2024/01/25 08:29:21;;;;;;;184.30;52.47;;;;;;;;;;5005113;28;22170;-44
2024/01/25 08:31:47;;;;;;;186.07;53.77;;;;;;;;;;5008805;28;20417;-44
2024/01/25 08:34:13;;;;;;;185.02;52.97;;;;;;;;;;4997261;28;20460;-43
2024/01/25 08:36:39;;;;;;;188.35;53.38;;;;;;;;;;5014879;28;20194;-43
2024/01/25 08:39:06;;;;;;;190.27;55.20;;;;;;;;;;4996743;28;20180;-44
2024/01/25 08:41:32;;;;;;;193.80;57.05;;;;;;;;;;5005142;28;20182;-43
2024/01/25 08:43:58;;;;;;;189.53;52.63;;;;;;;;;;4997454;28;20533;-44
2024/01/25 08:46:24;;;;;;;190.68;53.20;;;;;;;;;;4998062;28;20424;-43
2024/01/25 08:48:53;;;;;;;191.67;54.77;;;;;;;;;;4997909;28;20240;-43
2024/01/25 08:51:19;;;;;;;190.48;53.90;;;;;;;;;;4998224;28;20511;-45
2024/01/25 08:53:45;;;;;;;193.00;55.73;;;;;;;;;;5012632;28;20289;-45
2024/01/25 08:56:11;;;;;;;193.43;55.55;;;;;;;;;;5001491;28;20505;-45
2024/01/25 08:58:37;;;;;;;192.57;55.87;;;;;;;;;;5004802;28;20594;-45
2024/01/25 09:01:03;;;;;;;191.47;54.53;;;;;;;;;;5009712;28;20802;-47
2024/01/25 09:03:29;;;;;;;189.38;54.90;;;;;;;;;;4995982;28;20399;-44
2024/01/25 09:05:55;;;;;;;181.30;54.20;;;;;;;;;;4997065;28;20177;-45
2024/01/25 09:08:21;;;;;;;180.30;53.72;;;;;;;;;;5012594;28;20460;-45
2024/01/25 09:10:47;;;;;;;185.63;54.95;;;;;;;;;;5002781;28;20195;-44
2024/01/25 09:13:14;;;;;;;179.05;54.13;;;;;;;;;;5005488;28;20222;-45
2024/01/25 09:15:40;;;;;;;181.55;53.95;;;;;;;;;;5010904;28;20282;-45
2024/01/25 09:18:06;;;;;;;186.07;57.90;;;;;;;;;;4997515;28;20200;-46
2024/01/25 09:20:32;;;;;;;191.63;57.72;;;;;;;;;;5016138;28;20425;-45
2024/01/25 09:22:58;;;;;;;188.57;56.00;;;;;;;;;;4999074;28;20199;-46
2024/01/25 09:25:24;;;;;;;192.70;57.57;;;;;;;;;;5010158;28;20450;-46
2024/01/25 09:27:49;;;;;;;194.57;60.10;;;;;;;;;;5008541;28;20408;-46
2024/01/25 09:30:16;;;;;;;195.87;59.50;;;;;;;;;;5002053;28;20467;-48
2024/01/25 09:32:42;;;;;;;194.82;58.95;;;;;;;;;;5016997;28;20459;-45
2024/01/25 09:35:08;;;;;;;198.87;61.30;;;;;;;;;;4998408;28;20228;-45
2024/01/25 09:37:34;;;;;;;197.63;61.70;;;;;;;;;;5014343;28;20415;-46
2024/01/25 09:40:00;;;;;;;195.77;59.73;;;;;;;;;;5004842;28;20620;-46
2024/01/25 09:42:26;;;;;;;197.05;61.35;;;;;;;;;;5005419;28;20489;-45
2024/01/25 09:44:54;;;;;;;197.77;62.15;;;;;;;;;;5013901;28;20180;-44
2024/01/25 09:47:21;;;;;;;197.23;63.95;;;;;;;;;;4996969;28;20173;-45
2024/01/25 09:49:47;;;;;;;197.02;61.80;;;;;;;;;;5009659;28;20189;-46
2024/01/25 09:52:13;;;;;;;197.45;63.85;;;;;;;;;;5013946;28;20204;-45
2024/01/25 09:54:39;;;;;;;194.80;62.00;;;;;;;;;;5004927;28;20187;-44
2024/01/25 09:57:18;;;;;;;201.50;64.47;;;;;;;;;;5005645;28;20203;-46
2024/01/25 09:59:45;;;;;;;201.88;64.35;;;;;;;;;;5011223;28;20592;-47
2024/01/25 10:02:11;;;;;;;200.55;65.78;;;;;;;;;;4999844;28;20196;-46
2024/01/25 10:04:37;;;;;;;196.05;64.00;;;;;;;;;;5017982;28;20168;-47
2024/01/25 10:07:03;;;;;;;199.48;67.60;;;;;;;;;;5000174;28;20215;-47
2024/01/25 10:09:29;;;;;;;197.02;66.80;;;;;;;;;;5010090;28;20188;-47
2024/01/25 10:11:55;;;;;;;193.57;64.80;;;;;;;;;;5007670;28;20181;-46
2024/01/25 10:14:21;;;;;;;200.27;67.00;;;;;;;;;;5002029;28;20407;-45
2024/01/25 10:16:47;;;;;;;201.73;65.30;;;;;;;;;;5015756;28;20403;-44
2024/01/25 10:19:13;;;;;;;201.83;64.57;;;;;;;;;;4996330;28;20396;-45
2024/01/25 10:21:42;;;;;;;202.32;66.28;;;;;;;;;;4992965;28;20789;-47
2024/01/25 10:24:08;;;;;;;200.80;65.03;;;;;;;;;;4997442;28;20181;-45
2024/01/25 10:26:34;;;;;;;203.47;67.67;;;;;;;;;;4997603;28;20657;-46
2024/01/25 10:29:02;;;;;;;208.32;71.07;;;;;;;;;;4996355;28;20418;-44
2024/01/25 10:31:29;;;;;;;201.20;66.30;;;;;;;;;;5004136;28;20176;-45
2024/01/25 10:33:55;;;;;;;206.15;69.72;;;;;;;;;;4995823;28;20213;-45
2024/01/25 10:36:24;;;;;;;200.17;66.07;;;;;;;;;;4996046;28;20193;-46
2024/01/25 10:38:50;;;;;;;205.40;71.07;;;;;;;;;;4988863;28;20474;-46
2024/01/25 10:41:17;;;;;;;200.82;68.45;;;;;;;;;;4996322;28;20190;-47
2024/01/25 10:43:43;;;;;;;197.55;66.85;;;;;;;;;;4995205;28;20200;-46
2024/01/25 10:46:09;;;;;;;194.10;67.70;;;;;;;;;;4994531;28;20185;-44
2024/01/25 10:48:35;;;;;;;195.38;65.55;;;;;;;;;;4994123;28;20425;-44
2024/01/25 10:51:04;;;;;;;198.60;62.03;;;;;;;;;;4993258;28;20215;-45
2024/01/25 10:53:31;;;;;;;197.27;62.20;;;;;;;;;;4992514;28;20196;-44
2024/01/25 10:55:57;;;;;;;196.15;63.28;;;;;;;;;;4995090;28;20189;-44
2024/01/25 10:58:23;;;;;;;196.30;65.05;;;;;;;;;;4997234;28;20252;-46
2024/01/25 11:00:52;;;;;;;201.47;65.70;;;;;;;;;;4997467;28;20228;-45
2024/01/25 11:03:19;;;;;;;203.55;67.50;;;;;;;;;;4997765;28;20506;-47
2024/01/25 11:05:46;;;;;;;197.50;68.25;;;;;;;;;;4997588;28;20179;-48
2024/01/25 11:08:19;;;;;;;195.25;66.25;;;;;;;;;;4997683;28;20193;-47
2024/01/25 11:10:48;;;;;;;206.00;70.70;;;;;;;;;;4997193;28;20202;-46
2024/01/25 11:13:15;;;;;;;206.52;71.20;;;;;;;;;;4995840;28;20214;-46
2024/01/25 11:15:41;;;;;;;206.38;71.68;;;;;;;;;;4997367;28;20171;-48
2024/01/25 11:18:08;;;;;;;209.97;74.90;;;;;;;;;;4997751;28;20183;-47
2024/01/25 11:20:35;;;;;;;210.75;74.75;;;;;;;;;;4996096;28;21155;-46
2024/01/25 11:23:05;;;;;;;215.02;74.97;;;;;;;;;;4997273;28;20665;-46
2024/01/25 11:25:31;;;;;;;216.98;78.80;;;;;;;;;;4996595;28;20271;-46
2024/01/25 11:27:58;;;;;;;215.85;72.38;;;;;;;;;;4995587;28;20181;-46
2024/01/25 11:30:24;;;;;;;219.05;76.82;;;;;;;;;;4997122;28;20200;-46
2024/01/25 11:32:50;;;;;;;226.25;80.15;;;;;;;;;;5002771;28;20219;-47
2024/01/25 11:35:16;;;;;;;224.80;77.93;;;;;;;;;;5003870;28;20176;-47
2024/01/25 11:37:46;;;;;;;226.93;82.25;;;;;;;;;;5003382;28;20456;-47
2024/01/25 11:40:12;;;;;;;225.63;82.95;;;;;;;;;;5004112;28;20691;-44
2024/01/25 11:42:39;;;;;;;221.23;77.50;;;;;;;;;;5003455;28;20630;-47
2024/01/25 11:45:09;;;;;;;225.40;77.65;;;;;;;;;;5003539;28;20183;-46
2024/01/25 11:47:35;;;;;;;221.57;78.53;;;;;;;;;;5003597;28;20181;-45
2024/01/25 11:50:01;;;;;;;216.13;72.22;;;;;;;;;;5003325;28;20366;-47
2024/01/25 11:52:28;;;;;;;217.48;75.07;;;;;;;;;;5003199;28;20702;-47
2024/01/25 11:54:54;;;;;;;224.32;81.93;;;;;;;;;;5003755;28;20169;-48
2024/01/25 11:57:20;;;;;;;217.70;74.83;;;;;;;;;;5002892;28;20235;-47
2024/01/25 11:59:46;;;;;;;215.48;74.35;;;;;;;;;;5003550;28;20451;-48
2024/01/25 12:02:13;;;;;;;214.68;74.07;;;;;;;;;;5002978;28;20190;-46
2024/01/25 12:04:40;;;;;;;222.98;79.13;;;;;;;;;;5003688;28;20804;-45
2024/01/25 12:07:06;;;;;;;221.43;78.43;;;;;;;;;;5002281;28;20188;-46
2024/01/25 12:09:32;;;;;;;219.10;76.07;;;;;;;;;;5002318;28;20203;-45
2024/01/25 12:11:58;;;;;;;215.33;72.03;;;;;;;;;;5002702;28;20188;-45
2024/01/25 12:14:28;;;;;;;215.13;71.00;;;;;;;;;;5002911;28;20455;-46
2024/01/25 12:16:57;;;;;;;216.50;75.85;;;;;;;;;;5003011;28;21034;-46
2024/01/25 12:19:23;;;;;;;212.80;72.57;;;;;;;;;;5002305;28;20590;-45
2024/01/25 12:21:49;;;;;;;212.43;73.22;;;;;;;;;;5002442;28;20210;-45
2024/01/25 12:24:15;;;;;;;214.23;75.95;;;;;;;;;;5002275;28;20177;-46
2024/01/25 12:26:42;;;;;;;215.57;79.23;;;;;;;;;;5002081;28;20233;-47
2024/01/25 12:29:10;;;;;;;210.50;70.07;;;;;;;;;;5001537;28;20420;-45
2024/01/25 12:31:36;;;;;;;212.75;73.50;;;;;;;;;;5001305;28;20513;-45
2024/01/25 12:34:02;;;;;;;210.48;70.63;;;;;;;;;;5000568;28;20683;-46
2024/01/25 12:36:28;;;;;;;209.18;68.53;;;;;;;;;;5001140;28;20298;-45
2024/01/25 12:38:54;;;;;;;213.20;74.50;;;;;;;;;;5000864;28;20641;-45
2024/01/25 12:41:20;;;;;;;207.87;69.90;;;;;;;;;;5000934;28;20432;-45
2024/01/25 12:43:46;;;;;;;208.27;70.47;;;;;;;;;;4997770;28;20440;-47
2024/01/25 12:46:12;;;;;;;209.98;72.45;;;;;;;;;;4998146;28;20412;-47
2024/01/25 12:48:38;;;;;;;209.90;71.97;;;;;;;;;;4997987;28;20526;-47
2024/01/25 12:51:04;;;;;;;207.47;67.67;;;;;;;;;;4998381;28;20518;-46
2024/01/25 12:53:30;;;;;;;209.60;71.00;;;;;;;;;;4997826;28;20463;-46
2024/01/25 12:55:56;;;;;;;207.60;69.40;;;;;;;;;;4998288;28;20545;-44
2024/01/25 12:58:22;;;;;;;214.77;71.40;;;;;;;;;;4997550;28;20448;-46
2024/01/25 13:00:48;;;;;;;214.80;74.07;;;;;;;;;;4996609;28;20432;-45
2024/01/25 13:03:14;;;;;;;211.57;68.97;;;;;;;;;;4996625;28;20424;-46
2024/01/25 13:05:40;;;;;;;211.47;69.60;;;;;;;;;;4995660;28;20447;-45
2024/01/25 13:08:07;;;;;;;214.47;71.97;;;;;;;;;;4996925;28;20420;-46
2024/01/25 13:10:33;;;;;;;211.57;71.65;;;;;;;;;;4996536;28;20989;-44
2024/01/25 13:12:59;;;;;;;210.47;69.93;;;;;;;;;;4997011;28;20275;-45
2024/01/25 13:15:25;;;;;;;211.03;70.03;;;;;;;;;;4996815;28;20418;-47
2024/01/25 13:17:50;;;;;;;211.27;70.50;;;;;;;;;;4997430;28;20458;-44
2024/01/25 13:20:16;;;;;;;208.33;67.80;;;;;;;;;;4996745;28;20972;-47
2024/01/25 13:22:42;;;;;;;206.70;63.87;;;;;;;;;;4998028;28;20424;-46
2024/01/25 13:25:10;;;;;;;211.67;70.50;;;;;;;;;;4998584;28;20923;-45
2024/01/25 13:27:36;;;;;;;209.02;67.38;;;;;;;;;;4998691;28;20424;-45
2024/01/25 13:32:31;;;;;;;211.18;69.60;;;;;;;;;;5010769;28;20545;-47
2024/01/25 13:34:56;;;;;;;211.43;68.40;;;;;;;;;;5013430;28;20188;-46
2024/01/25 13:37:22;;;;;;;212.70;71.03;;;;;;;;;;5005722;28;20420;-47
2024/01/25 13:39:48;;;;;;;214.47;73.13;;;;;;;;;;5001829;28;20811;-47
2024/01/25 13:42:14;;;;;;;214.50;74.07;;;;;;;;;;5003059;28;20427;-46
2024/01/25 13:44:40;;;;;;;212.70;73.37;;;;;;;;;;5013464;28;20403;-46
2024/01/25 13:47:06;;;;;;;213.27;70.47;;;;;;;;;;5013274;28;20419;-47
2024/01/25 13:49:32;;;;;;;217.15;77.30;;;;;;;;;;5011655;28;20434;-47
2024/01/25 13:52:01;;;;;;;216.50;77.10;;;;;;;;;;5012229;28;20188;-48
2024/01/25 13:54:27;;;;;;;215.02;74.95;;;;;;;;;;5012928;28;20471;-47
2024/01/25 13:56:55;;;;;;;213.07;71.10;;;;;;;;;;5013364;28;20181;-47
2024/01/25 13:59:21;;;;;;;216.55;74.03;;;;;;;;;;5012987;28;20802;-46
2024/01/25 14:01:47;;;;;;;213.53;74.47;;;;;;;;;;5013056;28;20196;-47
2024/01/25 14:04:13;;;;;;;215.65;76.63;;;;;;;;;;5013117;28;20782;-47